Time;durP1;ratioP1;P1;durP2;ratioP2;P2;SDS_P1;SDS_P2;PMS_P1;PMS_P2;Temp;Humidity;BMP_temperature;BMP_pressure;BME280_temperature;BME280_humidity;BME280_pressure;Samples;Min_cycle;Max_cycle;Signal;HPM_P1;HPM_P2
2020/12/07 00:00:36;;;;;;;14.10;5.85;;;;;;;-1.13;60.22;102305.17;1777899;80;25686;-57
2020/12/07 00:03:04;;;;;;;20.65;6.95;;;;;;;-1.15;59.72;102298.58;1791789;80;27584;-56
2020/12/07 00:05:33;;;;;;;14.55;6.05;;;;;;;-1.17;59.41;102304.35;1754375;81;25728;-57
2020/12/07 00:08:02;;;;;;;19.20;6.95;;;;;;;-1.16;59.91;102310.03;1724338;83;25740;-56
2020/12/07 00:10:31;;;;;;;13.22;6.15;;;;;;;-1.17;59.62;102308.74;1724052;82;25616;-57
2020/12/07 00:13:01;;;;;;;23.05;6.62;;;;;;;-1.22;59.10;102305.31;1739708;82;26143;-57
2020/12/07 00:15:29;;;;;;;15.58;6.75;;;;;;;-1.24;59.15;102313.70;1771714;81;27582;-57
2020/12/07 00:18:01;;;;;;;20.20;6.72;;;;;;;-1.27;58.83;102301.42;1730133;82;25492;-57
2020/12/07 00:20:28;;;;;;;22.07;6.95;;;;;;;-1.31;58.91;102302.34;1725766;82;25657;-56
2020/12/07 00:22:57;;;;;;;13.32;6.22;;;;;;;-1.33;58.99;102302.80;1725880;82;25732;-56
2020/12/07 00:25:25;;;;;;;12.05;6.12;;;;;;;-1.34;58.96;102299.30;1705460;84;26048;-57
2020/12/07 00:27:52;;;;;;;14.00;6.00;;;;;;;-1.35;58.99;102305.47;1762451;81;27604;-57
2020/12/07 00:30:20;;;;;;;18.25;6.60;;;;;;;-1.40;58.69;102299.40;1762128;80;26635;-57
2020/12/07 00:32:49;;;;;;;19.60;7.17;;;;;;;-1.43;58.82;102309.98;1762259;81;25682;-57
2020/12/07 00:35:16;;;;;;;17.27;7.20;;;;;;;-1.47;59.12;102311.80;1762484;81;25622;-56
2020/12/07 00:37:44;;;;;;;17.80;6.05;;;;;;;-1.47;59.12;102310.48;1762376;81;25909;-56
2020/12/07 00:40:12;;;;;;;13.48;6.12;;;;;;;-1.51;59.50;102314.04;1762418;81;27544;-56
2020/12/07 00:42:40;;;;;;;17.80;6.83;;;;;;;-1.50;59.14;102322.39;1762293;81;26135;-57
2020/12/07 00:45:08;;;;;;;12.90;6.10;;;;;;;-1.53;59.06;102313.64;1762525;81;25453;-57
2020/12/07 00:47:37;;;;;;;19.42;6.15;;;;;;;-1.55;59.33;102322.02;1791065;80;25980;-56
2020/12/07 00:50:04;;;;;;;15.03;5.67;;;;;;;-1.61;59.41;102330.45;1792375;80;25675;-57
2020/12/07 00:52:33;;;;;;;14.47;6.25;;;;;;;-1.60;59.40;102324.72;1792247;79;28502;-56
2020/12/07 00:55:02;;;;;;;14.30;5.80;;;;;;;-1.62;59.02;102326.06;1792039;80;25653;-57
2020/12/07 00:57:30;;;;;;;14.73;7.08;;;;;;;-1.62;59.15;102319.93;1723996;82;25459;-56
2020/12/07 00:59:59;;;;;;;15.25;5.62;;;;;;;-1.65;59.57;102318.17;1727753;82;26450;-57
2020/12/07 01:02:27;;;;;;;16.25;5.75;;;;;;;-1.68;59.32;102323.52;1725909;82;25524;-56
2020/12/07 01:04:55;;;;;;;13.95;6.37;;;;;;;-1.70;59.49;102327.93;1736382;82;28466;-56
2020/12/07 01:07:24;;;;;;;16.05;8.05;;;;;;;-1.71;59.50;102322.22;1727128;82;25686;-57
2020/12/07 01:09:52;;;;;;;16.60;6.35;;;;;;;-1.75;59.43;102322.70;1726593;82;25725;-57
2020/12/07 01:12:20;;;;;;;13.08;6.72;;;;;;;-1.83;59.21;102321.93;1730452;82;26433;-57
2020/12/07 01:14:50;;;;;;;18.02;7.25;;;;;;;-1.89;59.49;102318.91;1722234;82;26097;-56
2020/12/07 01:17:19;;;;;;;13.10;6.33;;;;;;;-1.95;59.32;102323.38;1717655;82;28519;-56
2020/12/07 01:19:49;;;;;;;23.12;6.55;;;;;;;-2.01;59.13;102323.00;1735759;82;25739;-57
2020/12/07 01:22:18;;;;;;;15.88;7.92;;;;;;;-2.03;59.68;102316.89;1739692;82;25603;-57
2020/12/07 01:24:46;;;;;;;19.17;6.33;;;;;;;-2.07;59.65;102315.16;1740386;82;26407;-58
2020/12/07 01:27:15;;;;;;;17.57;6.85;;;;;;;-2.06;59.68;102303.27;1740431;82;26145;-56
2020/12/07 01:29:44;;;;;;;14.55;6.40;;;;;;;-2.11;59.78;102293.23;1740169;82;28455;-56
2020/12/07 01:32:12;;;;;;;24.70;7.00;;;;;;;-2.15;59.74;102294.14;1731392;82;25783;-57
2020/12/07 01:34:40;;;;;;;16.30;6.75;;;;;;;-2.19;59.74;102297.72;1729509;82;25499;-57
2020/12/07 01:37:09;;;;;;;14.07;6.60;;;;;;;-2.25;59.76;102297.79;1710894;82;25657;-57
2020/12/07 01:39:39;;;;;;;17.27;7.67;;;;;;;-2.26;59.95;102295.58;1725101;82;25744;-57
2020/12/07 01:42:08;;;;;;;18.12;6.97;;;;;;;-2.27;60.04;102293.83;1726512;82;28987;-57
2020/12/07 01:44:37;;;;;;;15.80;6.55;;;;;;;-2.30;60.23;102293.88;1727004;82;25700;-57
2020/12/07 01:47:21;;;;;;;22.20;7.87;;;;;;;-2.35;60.39;102279.86;1718617;83;25681;-57
2020/12/07 01:49:52;;;;;;;17.55;6.40;;;;;;;-2.37;60.44;102278.99;1719253;82;26502;-58
2020/12/07 01:52:23;;;;;;;18.10;7.97;;;;;;;-2.40;60.58;102273.77;1781559;79;25623;-57
2020/12/07 01:54:51;;;;;;;22.93;7.65;;;;;;;-2.45;60.67;102273.82;1717435;83;27581;-57
2020/12/07 01:57:19;;;;;;;15.65;7.05;;;;;;;-2.50;60.84;102276.92;1727596;82;25814;-57
2020/12/07 01:59:49;;;;;;;18.87;8.03;;;;;;;-2.53;60.94;102283.11;1722657;82;25716;-56
2020/12/07 02:02:19;;;;;;;15.75;7.65;;;;;;;-2.60;61.12;102277.93;1733479;82;26639;-56
2020/12/07 02:04:48;;;;;;;22.07;7.70;;;;;;;-2.64;61.30;102293.33;1733445;82;25739;-57
2020/12/07 02:07:19;;;;;;;23.22;8.88;;;;;;;-2.64;61.52;102289.37;1733540;82;27549;-56
2020/12/07 02:09:48;;;;;;;22.45;8.38;;;;;;;-2.65;61.80;102288.94;1791890;79;25464;-57
2020/12/07 02:12:17;;;;;;;20.17;8.40;;;;;;;-2.67;61.97;102288.96;1724364;83;25738;-57
2020/12/07 02:14:46;;;;;;;22.40;7.45;;;;;;;-2.65;62.07;102291.14;1738357;81;26475;-57
2020/12/07 02:17:15;;;;;;;22.75;8.25;;;;;;;-2.65;62.31;102281.92;1710516;83;26084;-57
2020/12/07 02:19:45;;;;;;;19.57;7.67;;;;;;;-2.67;62.38;102287.64;1696933;84;28435;-56
2020/12/07 02:22:13;;;;;;;19.25;7.67;;;;;;;-2.69;62.53;102283.69;1710733;83;25448;-56
2020/12/07 02:24:51;;;;;;;20.57;8.33;;;;;;;-2.65;62.53;102277.97;1838290;77;25597;-57
2020/12/07 02:27:21;;;;;;;18.90;6.35;;;;;;;-2.74;62.55;102279.38;1811853;79;26556;-57
2020/12/07 02:29:51;;;;;;;16.50;7.00;;;;;;;-2.76;62.58;102285.09;1710435;82;28494;-57
2020/12/07 02:32:19;;;;;;;17.90;7.78;;;;;;;-2.75;62.69;102289.47;1721697;81;25689;-57
2020/12/07 02:35:02;;;;;;;27.62;10.18;;;;;;;-2.70;62.71;102290.30;1833164;78;25628;-57
2020/12/07 02:37:31;;;;;;;21.80;8.48;;;;;;;-2.71;62.77;102303.03;1805118;79;25690;-57
2020/12/07 02:40:04;;;;;;;17.67;7.40;;;;;;;-2.74;62.80;102303.08;1805712;79;27378;-57
2020/12/07 02:42:34;;;;;;;17.35;7.90;;;;;;;-2.78;63.02;102294.30;1805636;79;26232;-57
2020/12/07 02:45:07;;;;;;;19.40;7.85;;;;;;;-2.84;63.07;102301.84;1793460;79;25652;-57
2020/12/07 02:47:35;;;;;;;17.05;7.53;;;;;;;-2.86;63.31;102294.38;1802658;79;25720;-57
2020/12/07 02:50:05;;;;;;;17.65;8.00;;;;;;;-2.89;63.24;102300.13;1706478;82;26091;-57
2020/12/07 02:52:35;;;;;;;21.20;7.92;;;;;;;-2.88;63.38;102300.09;1735430;82;27580;-57
2020/12/07 02:55:07;;;;;;;23.12;8.10;;;;;;;-2.92;63.30;102298.39;1735319;82;25651;-57
2020/12/07 02:57:35;;;;;;;16.85;8.23;;;;;;;-2.96;63.58;102299.74;1735428;82;25651;-57
2020/12/07 03:00:08;;;;;;;21.80;7.87;;;;;;;-3.00;63.59;102298.44;1731189;82;25652;-57
2020/12/07 03:02:38;;;;;;;18.70;9.35;;;;;;;-2.98;63.74;102291.83;1737104;82;26164;-57
2020/12/07 03:05:08;;;;;;;16.93;7.87;;;;;;;-3.03;63.83;102301.08;1740878;82;27714;-57
2020/12/07 03:07:37;;;;;;;17.10;8.15;;;;;;;-3.04;64.08;102298.47;1740925;82;26209;-57
2020/12/07 03:10:05;;;;;;;19.37;8.75;;;;;;;-3.04;64.26;102291.89;1767559;81;25490;-57
2020/12/07 03:12:35;;;;;;;18.80;7.47;;;;;;;-3.06;64.18;102288.38;1734171;82;25679;-57
2020/12/07 03:15:05;;;;;;;19.02;9.25;;;;;;;-3.09;64.18;102285.80;1711110;83;25689;-57
2020/12/07 03:17:34;;;;;;;15.75;7.33;;;;;;;-3.15;64.15;102306.00;1737115;82;28163;-57
2020/12/07 03:20:03;;;;;;;21.73;8.20;;;;;;;-3.22;64.18;102297.72;1711275;83;25731;-57
2020/12/07 03:22:31;;;;;;;20.72;8.00;;;;;;;-3.19;64.30;102291.55;1711409;83;25505;-57
2020/12/07 03:25:00;;;;;;;20.12;7.83;;;;;;;-3.25;64.40;102300.81;1737113;82;26180;-57
2020/12/07 03:27:31;;;;;;;16.93;8.03;;;;;;;-3.30;64.48;102303.47;1711342;83;25659;-57
2020/12/07 03:30:00;;;;;;;20.92;8.45;;;;;;;-3.30;64.50;102300.38;1736678;82;27982;-58
2020/12/07 03:32:30;;;;;;;22.95;8.55;;;;;;;-3.32;64.65;102295.56;1767554;81;25685;-56
2020/12/07 03:34:59;;;;;;;27.05;9.35;;;;;;;-3.35;64.84;102299.55;1743589;82;25685;-56
2020/12/07 03:37:27;;;;;;;24.20;8.93;;;;;;;-3.35;64.85;102294.70;1744410;82;25667;-57
2020/12/07 03:39:57;;;;;;;22.40;7.95;;;;;;;-3.38;64.93;102292.12;1744311;82;25692;-57
2020/12/07 03:42:27;;;;;;;25.23;9.45;;;;;;;-3.42;65.11;102295.63;1744262;82;27790;-57
2020/12/07 03:44:57;;;;;;;20.23;8.38;;;;;;;-3.46;65.07;102298.73;1744044;81;25614;-57
2020/12/07 03:47:25;;;;;;;20.50;7.72;;;;;;;-3.47;65.26;102296.55;1743867;82;25704;-57
2020/12/07 03:49:54;;;;;;;22.75;7.30;;;;;;;-3.51;65.54;102289.55;1732974;82;25663;-56
2020/12/07 03:52:22;;;;;;;19.70;8.55;;;;;;;-3.55;65.49;102291.77;1714236;83;25482;-57
2020/12/07 03:54:51;;;;;;;22.58;8.00;;;;;;;-3.56;66.01;102291.34;1714042;83;27523;-57
2020/12/07 03:57:20;;;;;;;21.23;8.68;;;;;;;-3.59;66.11;102290.48;1714128;83;25748;-57
2020/12/07 03:59:49;;;;;;;18.45;7.97;;;;;;;-3.65;65.99;102297.95;1713939;83;26016;-56
2020/12/07 04:02:18;;;;;;;18.57;8.58;;;;;;;-3.64;66.11;102295.77;1714201;83;26033;-57
2020/12/07 04:07:24;;;;;;;12.20;5.85;;;;;;;-3.59;66.42;102287.85;1833436;78;25537;-57
2020/12/07 04:09:52;;;;;;;20.12;8.43;;;;;;;-3.64;66.66;102291.82;1805730;79;25744;-57
2020/12/07 04:12:20;;;;;;;26.30;8.70;;;;;;;-3.65;66.50;102292.70;1783201;79;27583;-57
2020/12/07 04:14:48;;;;;;;17.90;8.55;;;;;;;-3.66;66.99;102300.15;1721568;83;25602;-57
2020/12/07 04:17:15;;;;;;;22.50;9.83;;;;;;;-3.64;66.74;102291.36;1683208;83;25775;-57
2020/12/07 04:19:44;;;;;;;29.48;9.65;;;;;;;-3.60;66.69;102298.80;1721607;83;25502;-57
2020/12/07 04:22:12;;;;;;;19.23;9.38;;;;;;;-3.57;66.70;102293.53;1707081;84;26443;-57
2020/12/07 04:24:40;;;;;;;25.80;11.48;;;;;;;-3.52;66.86;102296.14;1715826;83;27557;-57
2020/12/07 04:27:08;;;;;;;18.70;9.13;;;;;;;-3.51;66.98;102296.58;1721216;83;26166;-57
2020/12/07 04:29:36;;;;;;;26.65;9.50;;;;;;;-3.49;67.14;102295.67;1740720;81;25678;-57
2020/12/07 04:32:04;;;;;;;22.30;8.93;;;;;;;-3.47;67.01;102299.61;1749829;82;25739;-56
2020/12/07 04:34:32;;;;;;;33.80;11.22;;;;;;;-3.42;67.26;102291.69;1749584;82;26088;-56
2020/12/07 04:37:00;;;;;;;22.62;9.13;;;;;;;-3.42;67.20;102295.63;1749819;82;28373;-56
2020/12/07 04:39:27;;;;;;;22.58;10.45;;;;;;;-3.43;67.33;102305.30;1749702;82;26128;-56
2020/12/07 04:41:58;;;;;;;22.52;9.18;;;;;;;-3.46;67.38;102294.36;1771803;80;26396;-56
2020/12/07 04:44:26;;;;;;;23.73;9.68;;;;;;;-3.43;67.58;102289.51;1747186;81;25663;-57
2020/12/07 04:46:56;;;;;;;26.77;9.90;;;;;;;-3.37;67.55;102284.66;1758876;80;25718;-57
2020/12/07 04:49:30;;;;;;;23.80;10.40;;;;;;;-3.34;67.44;102282.88;1749511;82;28905;-57
2020/12/07 04:52:00;;;;;;;20.57;9.98;;;;;;;-3.34;67.55;102287.25;1749466;82;26109;-57
2020/12/07 04:54:31;;;;;;;19.87;9.03;;;;;;;-3.36;67.60;102283.78;1749535;82;25636;-58
2020/12/07 04:57:02;;;;;;;22.58;10.72;;;;;;;-3.41;67.52;102278.97;1718137;82;26268;-57
2020/12/07 04:59:32;;;;;;;27.55;9.83;;;;;;;-3.51;67.52;102282.11;1747752;82;26265;-57
2020/12/07 05:02:02;;;;;;;22.52;10.25;;;;;;;-3.56;67.80;102285.19;1721349;82;27533;-57
2020/12/07 05:04:30;;;;;;;26.02;10.50;;;;;;;-3.59;67.87;102282.13;1721308;83;25513;-57
2020/12/07 05:07:02;;;;;;;20.48;10.08;;;;;;;-3.58;68.05;102273.78;1714440;82;25451;-57
2020/12/07 05:09:31;;;;;;;27.22;10.70;;;;;;;-3.57;68.17;102274.22;1711431;82;25673;-57
2020/12/07 05:12:03;;;;;;;21.65;11.25;;;;;;;-3.60;68.03;102270.31;1711455;83;25444;-58
2020/12/07 05:14:32;;;;;;;26.17;11.85;;;;;;;-3.64;68.43;102265.06;1711473;83;27368;-57
2020/12/07 05:17:00;;;;;;;20.90;11.75;;;;;;;-3.70;68.88;102253.69;1711098;83;25656;-57
2020/12/07 05:19:29;;;;;;;29.82;11.22;;;;;;;-3.77;68.64;102255.05;1710837;83;25647;-57
2020/12/07 05:21:58;;;;;;;21.35;10.93;;;;;;;-3.76;68.84;102258.53;1710915;83;25483;-57
2020/12/07 05:24:25;;;;;;;23.77;11.28;;;;;;;-3.75;69.12;102254.16;1710818;83;25287;-57
2020/12/07 05:26:55;;;;;;;24.87;10.55;;;;;;;-3.76;69.52;102257.22;1710509;83;28441;-57
2020/12/07 05:29:32;;;;;;;25.20;11.55;;;;;;;-3.76;69.78;102267.73;1727306;82;25863;-58
2020/12/07 05:31:56;;;;;;;29.27;13.03;;;;;;;-3.73;69.85;102270.82;1738258;82;26015;-58
2020/12/07 05:34:25;;;;;;;31.37;11.60;;;;;;;-3.71;69.99;102269.03;1738651;82;25666;-58
2020/12/07 05:36:56;;;;;;;26.93;11.85;;;;;;;-3.67;70.08;102270.78;1738674;82;26043;-58
2020/12/07 05:39:25;;;;;;;25.30;10.88;;;;;;;-3.65;70.16;102274.28;1724067;83;28576;-58
2020/12/07 05:41:56;;;;;;;26.90;11.85;;;;;;;-3.65;70.43;102273.83;1733413;82;26256;-57
2020/12/07 05:44:26;;;;;;;31.57;12.90;;;;;;;-3.62;70.61;102272.94;1792381;80;25722;-57
2020/12/07 05:46:56;;;;;;;35.43;14.65;;;;;;;-3.60;70.37;102285.64;1725420;83;25715;-58
2020/12/07 05:49:24;;;;;;;36.15;12.20;;;;;;;-3.55;70.52;102279.94;1724622;81;25676;-57
2020/12/07 05:52:04;;;;;;;31.70;12.43;;;;;;;-3.52;70.63;102287.79;1710899;82;28486;-57
2020/12/07 05:54:33;;;;;;;30.32;12.60;;;;;;;-3.46;70.42;102290.83;1725994;83;25685;-57
2020/12/07 05:57:15;;;;;;;29.20;11.63;;;;;;;-3.37;70.46;102290.78;1705172;82;25815;-58
2020/12/07 05:59:45;;;;;;;25.75;11.65;;;;;;;-3.28;70.79;102292.50;1719849;82;25742;-57
2020/12/07 06:02:15;;;;;;;28.55;12.58;;;;;;;-3.31;70.67;102290.73;1752146;80;25699;-58
2020/12/07 06:04:44;;;;;;;30.72;14.55;;;;;;;-3.23;70.55;102289.38;1788705;79;27507;-57
2020/12/07 06:07:15;;;;;;;34.98;13.98;;;;;;;-3.19;70.85;102288.91;1805154;79;26339;-58
2020/12/07 06:09:47;;;;;;;25.75;11.45;;;;;;;-3.16;70.80;102284.95;1786376;79;25705;-57
2020/12/07 06:12:23;;;;;;;31.65;12.00;;;;;;;-3.10;70.87;102284.05;1779470;80;26037;-58
2020/12/07 06:14:52;;;;;;;36.40;10.63;;;;;;;-3.07;70.73;102282.69;1779508;80;25750;-57
2020/12/07 06:17:31;;;;;;;26.05;10.48;;;;;;;-3.05;70.58;102290.99;1751222;80;27666;-58
2020/12/07 06:19:59;;;;;;;29.23;9.25;;;;;;;-2.99;70.70;102276.91;1788177;79;26122;-58
2020/12/07 06:22:29;;;;;;;27.73;11.65;;;;;;;-2.94;70.63;102283.04;1807629;79;25641;-58
2020/12/07 06:24:59;;;;;;;22.58;11.90;;;;;;;-2.94;70.57;102289.62;1806239;78;25611;-58
2020/12/07 06:27:27;;;;;;;29.32;12.60;;;;;;;-2.92;70.51;102290.92;1779463;80;26593;-58
2020/12/07 06:29:59;;;;;;;26.65;10.80;;;;;;;-2.87;70.52;102283.87;1781369;79;28478;-58
2020/12/07 06:32:47;;;;;;;21.82;9.43;;;;;;;-2.84;70.24;102283.40;1817123;78;25726;-58
2020/12/07 06:35:16;;;;;;;21.23;9.73;;;;;;;-2.85;70.01;102289.97;1793353;78;25650;-58
2020/12/07 06:37:48;;;;;;;25.40;11.83;;;;;;;-2.89;70.07;102293.08;1834017;78;26273;-58
2020/12/07 06:40:26;;;;;;;23.62;9.68;;;;;;;-2.85;70.15;102294.81;1838353;78;25495;-57
2020/12/07 06:42:54;;;;;;;23.62;10.70;;;;;;;-2.87;70.08;102299.22;1813747;79;25485;-58
2020/12/07 06:45:32;;;;;;;23.02;10.75;;;;;;;-2.87;70.13;102287.82;1816653;77;27537;-56
2020/12/07 06:48:10;;;;;;;25.62;9.55;;;;;;;-2.89;70.01;102294.39;1804360;79;25778;-57
2020/12/07 06:50:41;;;;;;;31.40;10.50;;;;;;;-2.85;70.28;102304.45;1786162;79;25697;-57
2020/12/07 06:55:55;;;;;;;27.70;10.03;;;;;;;-2.76;70.29;102296.48;1810876;79;25631;-57
2020/12/07 06:58:37;;;;;;;34.88;11.78;;;;;;;-2.71;69.92;102300.40;1813491;79;27526;-57
2020/12/07 07:01:15;;;;;;;24.47;11.28;;;;;;;-2.71;69.73;102299.08;1813452;79;25642;-57
2020/12/07 07:03:52;;;;;;;26.15;11.20;;;;;;;-2.69;69.71;102296.00;1813646;79;25611;-57
2020/12/07 07:06:23;;;;;;;24.40;10.53;;;;;;;-2.71;69.70;102297.34;1813515;79;25694;-57
2020/12/07 07:08:54;;;;;;;30.27;10.82;;;;;;;-2.75;69.72;102297.38;1781457;80;25698;-56
2020/12/07 07:11:21;;;;;;;31.02;11.68;;;;;;;-2.72;69.71;102300.86;1770625;80;27556;-57
2020/12/07 07:13:50;;;;;;;22.85;10.58;;;;;;;-2.69;69.81;102296.86;1770158;81;25570;-57
2020/12/07 07:16:18;;;;;;;23.05;10.75;;;;;;;-2.65;69.80;102299.05;1770260;81;25608;-57
2020/12/07 07:18:46;;;;;;;25.92;10.35;;;;;;;-2.62;69.67;102295.05;1770113;81;25705;-57
2020/12/07 07:21:14;;;;;;;19.82;10.82;;;;;;;-2.57;69.57;102286.67;1770168;81;26337;-57
2020/12/07 07:23:44;;;;;;;18.30;9.50;;;;;;;-2.50;69.59;102280.02;1770185;81;28526;-57
2020/12/07 07:28:53;;;;;;;22.40;11.50;;;;;;;-2.11;69.30;102280.05;1832555;78;25579;-58
2020/12/07 07:31:24;;;;;;;20.62;10.70;;;;;;;-1.99;69.00;102282.13;1803793;79;25700;-58
2020/12/07 07:33:52;;;;;;;25.45;11.73;;;;;;;-1.79;68.74;102284.05;1803897;79;26735;-58
2020/12/07 07:36:24;;;;;;;19.90;10.05;;;;;;;-1.64;68.03;102277.70;1803673;79;25662;-58
2020/12/07 07:39:00;;;;;;;17.50;9.00;;;;;;;-1.49;67.57;102278.41;1735426;82;25727;-58
2020/12/07 07:41:28;;;;;;;22.30;9.55;;;;;;;-1.43;66.58;102283.59;1739449;82;25781;-58
2020/12/07 07:43:57;;;;;;;23.42;8.53;;;;;;;-1.40;66.65;102278.71;1739422;82;26036;-58
2020/12/07 07:46:26;;;;;;;17.05;7.67;;;;;;;-1.38;66.05;102277.78;1722388;82;27595;-58
2020/12/07 07:52:26;;;;;;;20.92;8.98;;;;;;;-1.35;65.80;102273.80;1838398;78;25411;-57
2020/12/07 08:16:21;;;;;;;24.75;8.63;;;;;;;-1.14;64.70;102265.99;1773949;79;25859;-57
2020/12/07 08:18:55;;;;;;;24.67;11.53;;;;;;;-0.89;64.47;102264.73;1781743;79;25780;-57
2020/12/07 08:21:32;;;;;;;19.70;9.88;;;;;;;-0.68;64.65;102272.73;1788558;79;27520;-57
2020/12/07 08:24:10;;;;;;;22.32;10.95;;;;;;;-0.37;63.37;102269.09;1805432;79;25673;-57
2020/12/07 08:26:42;;;;;;;16.05;8.23;;;;;;;-0.24;63.21;102271.52;1805545;79;25829;-57
2020/12/07 08:29:11;;;;;;;17.32;8.80;;;;;;;0.21;61.88;102267.96;1773956;79;25667;-56
2020/12/07 08:31:41;;;;;;;16.73;8.35;;;;;;;0.26;60.91;102265.64;1773881;80;26136;-57
2020/12/07 08:34:15;;;;;;;17.80;8.00;;;;;;;0.28;61.08;102267.81;1773830;80;28495;-57
2020/12/07 08:36:46;;;;;;;16.15;7.70;;;;;;;0.32;60.68;102258.02;1784252;79;26185;-57
2020/12/07 08:39:14;;;;;;;17.25;7.92;;;;;;;0.30;60.31;102259.39;1786582;79;25685;-57
2020/12/07 08:41:44;;;;;;;21.85;9.50;;;;;;;0.37;60.56;102261.89;1773793;80;25691;-57
2020/12/07 08:44:12;;;;;;;22.55;9.70;;;;;;;0.38;60.13;102253.05;1773816;80;26214;-57
2020/12/07 08:46:42;;;;;;;21.90;9.10;;;;;;;0.26;59.51;102239.64;1791181;79;27586;-57
2020/12/07 08:49:10;;;;;;;14.63;7.70;;;;;;;0.02;59.83;102236.59;1783955;79;25589;-57
2020/12/07 08:51:38;;;;;;;18.77;9.68;;;;;;;-0.09;60.89;102241.25;1773896;80;25623;-57
2020/12/07 08:54:07;;;;;;;20.35;8.70;;;;;;;-0.05;60.91;102239.84;1773739;80;26568;-57
2020/12/07 08:56:35;;;;;;;16.93;8.43;;;;;;;-0.13;60.56;102233.80;1773781;80;25604;-57
2020/12/07 08:59:03;;;;;;;15.93;8.78;;;;;;;-0.36;60.54;102242.22;1773682;80;27485;-57
2020/12/07 09:01:31;;;;;;;20.17;9.08;;;;;;;-0.54;61.20;102236.34;1776917;80;25443;-56
2020/12/07 09:04:02;;;;;;;19.62;9.73;;;;;;;-0.55;61.65;102241.67;1781063;79;25751;-57
2020/12/07 09:06:30;;;;;;;18.55;8.90;;;;;;;-0.57;61.72;102237.75;1811896;79;25661;-56
2020/12/07 09:08:58;;;;;;;19.48;8.80;;;;;;;-0.61;61.11;102233.86;1812093;79;26096;-57
2020/12/07 09:11:26;;;;;;;19.92;8.90;;;;;;;-0.76;61.34;102237.19;1811733;79;26788;-57
2020/12/07 09:13:53;;;;;;;18.17;9.03;;;;;;;-0.86;61.82;102234.30;1811386;79;26524;-57
2020/12/07 09:16:22;;;;;;;15.32;8.95;;;;;;;-0.95;62.12;102231.36;1811171;79;25638;-56
2020/12/07 09:18:50;;;;;;;24.80;9.30;;;;;;;-0.98;62.25;102227.00;1811256;79;26167;-57
2020/12/07 09:21:18;;;;;;;19.80;9.30;;;;;;;-1.12;62.17;102223.27;1811503;79;25720;-57
2020/12/07 09:23:46;;;;;;;16.85;7.70;;;;;;;-1.26;62.27;102222.63;1811459;78;27513;-56
2020/12/07 09:26:14;;;;;;;22.85;9.78;;;;;;;-1.34;62.61;102216.14;1810099;78;25691;-57
2020/12/07 09:28:42;;;;;;;18.00;9.03;;;;;;;-1.40;62.84;102223.27;1810689;79;25647;-56
2020/12/07 09:31:10;;;;;;;15.85;7.37;;;;;;;-1.41;62.87;102227.70;1738373;82;25701;-56
2020/12/07 09:33:38;;;;;;;17.50;7.78;;;;;;;-1.44;62.69;102216.74;1738253;82;26286;-56
2020/12/07 09:36:06;;;;;;;18.45;8.18;;;;;;;-1.48;62.99;102212.85;1738151;82;28515;-57
2020/12/07 09:38:34;;;;;;;21.73;9.55;;;;;;;-1.49;63.01;102207.14;1739174;82;25799;-57
2020/12/07 09:41:03;;;;;;;16.97;8.38;;;;;;;-1.49;63.31;102208.47;1739784;82;25759;-57
2020/12/07 09:43:30;;;;;;;26.42;11.63;;;;;;;-1.43;63.11;102203.94;1739802;82;25542;-56
2020/12/07 09:45:59;;;;;;;25.88;11.73;;;;;;;-1.35;63.26;102202.97;1731114;82;26220;-57
2020/12/07 09:48:28;;;;;;;25.05;10.72;;;;;;;-1.27;63.29;102205.90;1779617;80;28604;-57
2020/12/07 09:50:55;;;;;;;17.95;8.43;;;;;;;-1.23;62.55;102200.58;1739654;82;25662;-57
2020/12/07 09:53:24;;;;;;;19.20;8.40;;;;;;;-1.29;62.50;102206.36;1779585;80;25623;-57
2020/12/07 09:55:52;;;;;;;18.48;9.68;;;;;;;-1.28;62.55;102200.66;1779521;80;26123;-57
2020/12/07 09:58:20;;;;;;;23.83;9.93;;;;;;;-1.32;62.13;102202.91;1779617;80;25663;-56
2020/12/07 10:00:48;;;;;;;20.23;10.00;;;;;;;-1.37;62.34;102204.76;1778729;79;27408;-57
2020/12/07 10:03:16;;;;;;;22.60;9.75;;;;;;;-1.42;62.53;102205.69;1768840;79;25659;-57
2020/12/07 10:05:44;;;;;;;19.82;8.80;;;;;;;-1.49;62.34;102209.78;1729627;82;25717;-57
2020/12/07 10:08:12;;;;;;;19.80;9.55;;;;;;;-1.58;62.75;102198.90;1768880;81;25680;-57
2020/12/07 10:10:40;;;;;;;29.77;10.98;;;;;;;-1.60;62.80;102196.72;1768912;81;25610;-57
2020/12/07 10:13:10;;;;;;;28.83;11.03;;;;;;;-1.63;63.13;102188.41;1768891;81;27559;-57
2020/12/07 10:15:37;;;;;;;24.00;10.70;;;;;;;-1.60;63.20;102188.81;1768605;81;26579;-57
2020/12/07 10:18:05;;;;;;;29.05;12.73;;;;;;;-1.52;63.13;102180.32;1768746;81;25676;-57
2020/12/07 10:20:33;;;;;;;23.95;10.35;;;;;;;-1.52;63.25;102176.83;1768642;81;26117;-57
2020/12/07 10:23:01;;;;;;;24.85;9.98;;;;;;;-1.47;63.31;102179.82;1768862;81;25734;-57
2020/12/07 10:25:29;;;;;;;17.45;7.95;;;;;;;-1.47;63.02;102178.93;1783026;79;27517;-57
2020/12/07 10:27:57;;;;;;;21.62;9.08;;;;;;;-1.48;62.88;102174.12;1800257;79;25692;-57
2020/12/07 10:30:25;;;;;;;25.55;9.25;;;;;;;-1.47;63.27;102165.73;1768817;81;25714;-57
2020/12/07 10:32:53;;;;;;;19.40;8.83;;;;;;;-1.30;63.01;102161.52;1783110;78;25718;-56
2020/12/07 10:35:21;;;;;;;20.75;9.38;;;;;;;-1.22;62.68;102157.44;1800673;79;26519;-57
2020/12/07 10:37:51;;;;;;;14.80;7.70;;;;;;;-1.16;62.00;102155.54;1798107;79;27526;-57
2020/12/07 10:40:19;;;;;;;18.57;8.88;;;;;;;-1.19;61.49;102150.77;1773896;79;25733;-56
2020/12/07 10:42:46;;;;;;;13.13;6.08;;;;;;;-1.24;61.24;102140.28;1800307;79;25635;-57
2020/12/07 10:45:15;;;;;;;17.05;8.78;;;;;;;-1.36;61.55;102143.14;1800501;78;25735;-57
2020/12/07 10:47:43;;;;;;;16.52;7.72;;;;;;;-1.42;61.83;102138.83;1768779;80;26112;-57
2020/12/07 10:50:11;;;;;;;20.75;8.80;;;;;;;-1.45;61.99;102142.83;1768712;81;27522;-57
2020/12/07 10:52:38;;;;;;;22.85;9.65;;;;;;;-1.52;61.94;102145.16;1768494;81;26147;-57
2020/12/07 10:55:06;;;;;;;18.25;8.98;;;;;;;-1.53;62.14;102143.41;1768688;81;25674;-57
2020/12/07 10:57:34;;;;;;;25.48;10.03;;;;;;;-1.55;62.57;102147.83;1768868;80;25456;-56
2020/12/07 11:00:05;;;;;;;20.72;9.05;;;;;;;-1.53;62.78;102140.34;1768613;81;26136;-56
2020/12/07 11:02:34;;;;;;;18.82;8.73;;;;;;;-1.57;62.85;102141.27;1768451;78;27543;-57
2020/12/07 11:05:02;;;;;;;18.60;8.43;;;;;;;-1.58;62.66;102149.64;1768725;81;25700;-56
2020/12/07 11:07:31;;;;;;;27.62;9.25;;;;;;;-1.63;62.67;102139.59;1768814;81;25658;-57
2020/12/07 11:09:59;;;;;;;19.48;8.78;;;;;;;-1.61;62.75;102151.43;1768781;80;25653;-57
2020/12/07 11:12:27;;;;;;;17.00;8.33;;;;;;;-1.60;62.72;102138.66;1768836;81;26183;-57
2020/12/07 11:14:55;;;;;;;14.45;8.23;;;;;;;-1.61;62.51;102144.84;1768694;80;28688;-57
2020/12/07 11:17:23;;;;;;;19.15;9.40;;;;;;;-1.69;62.52;102145.41;1768570;81;26142;-56
2020/12/07 11:19:51;;;;;;;20.30;9.38;;;;;;;-1.78;62.98;102151.70;1768681;81;25583;-57
2020/12/07 11:22:19;;;;;;;19.95;8.85;;;;;;;-1.81;63.15;102146.47;1768643;81;25522;-57
2020/12/07 11:24:47;;;;;;;18.65;9.83;;;;;;;-1.86;63.17;102143.89;1768697;81;25767;-57
2020/12/07 11:27:15;;;;;;;21.60;10.13;;;;;;;-1.92;63.51;102144.84;1768701;81;27253;-57
2020/12/07 11:29:42;;;;;;;19.80;9.13;;;;;;;-1.94;63.44;102143.13;1768696;79;26197;-56
2020/12/07 11:32:10;;;;;;;17.67;9.18;;;;;;;-1.97;63.63;102140.10;1768668;81;25695;-57
2020/12/07 11:34:38;;;;;;;24.45;9.68;;;;;;;-1.97;63.75;102135.29;1768640;81;25716;-57
2020/12/07 11:37:06;;;;;;;13.62;7.10;;;;;;;-1.97;63.66;102134.83;1768818;81;25593;-56
2020/12/07 11:42:21;;;;;;;16.52;7.75;;;;;;;-1.99;63.56;102144.52;1768369;81;25687;-57
2020/12/07 11:44:46;;;;;;;19.57;8.45;;;;;;;-2.09;63.51;102146.85;1767874;81;25717;-55
2020/12/07 11:47:14;;;;;;;20.52;8.03;;;;;;;-2.15;63.79;102144.31;1768633;80;25670;-57
2020/12/07 11:49:43;;;;;;;24.85;9.40;;;;;;;-2.12;63.80;102149.09;1768783;81;25651;-57
2020/12/07 11:52:11;;;;;;;19.90;9.43;;;;;;;-2.16;63.49;102150.04;1768801;81;27465;-57
2020/12/07 11:54:39;;;;;;;17.27;8.43;;;;;;;-2.20;63.76;102149.18;1768550;81;26532;-57
2020/12/07 11:57:07;;;;;;;13.60;6.80;;;;;;;-2.27;63.62;102150.16;1768766;81;25648;-57
2020/12/07 11:59:35;;;;;;;20.37;9.13;;;;;;;-2.34;63.73;102145.00;1768684;81;26159;-57